DKA weather

Katsina Airport
Katsina, Katsina, Nigeria

Public forecast

Using degrees Celsius for public forecast. Weather courtesy of forecast.io.

METAR (pilot weather report)

Report is more than 6 hours old.

Closest report is Maradi Airport, 43.1 nm (79.8 km) NW. Retrieved 2019/04/20 18:00 UTC (10 hours ago):

DRRM 201800Z 08002KT 2000 DU NSC 38/04 Q1009

TAF (pilot weather forecast)

Forecast is more than 12 hours old.

Closest forecast is Mallam Aminu International Airport, 76.7 nm (142.1 km) SE. Retrieved 2019/04/20 00:21 UTC (1 day ago):

TAF DNKN 202130Z 2100/2206 VRB02KT CAVOK BECMG 2106/2108 05010KT